Time;durP1;ratioP1;P1;durP2;ratioP2;P2;SDS_P1;SDS_P2;PMS_P1;PMS_P2;Temp;Humidity;BMP_temperature;BMP_pressure;BME280_temperature;BME280_humidity;BME280_pressure;Samples;Min_cycle;Max_cycle;Signal;HPM_P1;HPM_P2
2022/07/01 00:00:50;;;;;;;;;3.00;2.00;;;;;16.25;65.33;101029.91;5055704;28;45619;-59
2022/07/01 00:03:15;;;;;;;;;1.00;1.00;;;;;16.13;65.58;101015.56;5067574;27;45390;-61
2022/07/01 00:05:41;;;;;;;;;3.00;2.00;;;;;16.04;65.80;101011.75;5056245;28;45255;-60
2022/07/01 00:08:10;;;;;;;;;3.00;2.00;;;;;16.08;65.44;101034.69;5065014;28;45518;-58
2022/07/01 00:10:37;;;;;;;;;1.00;1.00;;;;;16.12;66.00;101043.38;5074369;27;45306;-61
2022/07/01 00:13:03;;;;;;;;;0.00;0.00;;;;;16.13;66.09;101040.56;5077086;27;45342;-62
2022/07/01 00:15:29;;;;;;;;;1.67;1.67;;;;;16.08;66.14;101025.78;5077608;27;45475;-62
2022/07/01 00:17:54;;;;;;;;;2.00;2.00;;;;;16.10;66.10;101037.25;5079379;27;45601;-61
2022/07/01 00:20:20;;;;;;;;;1.00;1.00;;;;;16.09;66.00;101047.13;5078541;27;46819;-63
2022/07/01 00:22:46;;;;;;;;;1.00;1.00;;;;;16.06;66.30;101051.88;5079405;27;45412;-62
2022/07/01 00:25:11;;;;;;;;;1.00;1.00;;;;;15.92;66.50;101026.88;5078281;27;45536;-62
2022/07/01 00:27:39;;;;;;;;;2.00;2.00;;;;;16.01;66.19;101045.94;5064204;28;45509;-61
2022/07/01 00:30:05;;;;;;;;;1.00;1.00;;;;;15.95;66.41;101043.72;5057908;28;46581;-60
2022/07/01 00:32:31;;;;;;;;;1.00;1.00;;;;;15.97;66.64;101057.88;5071049;28;45405;-60
2022/07/01 00:34:56;;;;;;;;;1.67;1.00;;;;;15.91;66.23;101052.00;5079692;27;45309;-60
2022/07/01 00:37:21;;;;;;;;;1.00;1.00;;;;;15.93;66.74;101057.25;5067070;28;45401;-60
2022/07/01 00:39:47;;;;;;;;;2.00;0.67;;;;;15.86;66.89;101056.81;5058006;28;47005;-60
2022/07/01 00:42:12;;;;;;;;;1.00;1.00;;;;;15.91;66.78;101065.41;5062468;28;45291;-62
2022/07/01 00:44:38;;;;;;;;;1.33;0.33;;;;;15.94;67.24;101064.31;5079728;27;45267;-60
2022/07/01 00:47:09;;;;;;;;;1.00;1.00;;;;;15.87;66.91;101063.88;5075244;28;45418;-60
2022/07/01 00:49:35;;;;;;;;;1.00;1.00;;;;;15.85;66.41;101047.06;5078303;28;45710;-62
2022/07/01 00:52:00;;;;;;;;;0.00;0.00;;;;;15.93;66.48;101058.09;5078354;28;45486;-62
2022/07/01 00:54:27;;;;;;;;;3.00;1.00;;;;;15.89;66.41;101055.75;5078170;27;45260;-61
2022/07/01 00:56:53;;;;;;;;;2.00;1.00;;;;;15.87;66.45;101052.31;5078134;27;45319;-63
2022/07/01 00:59:18;;;;;;;;;1.00;1.00;;;;;15.89;66.81;101067.34;5078536;27;45389;-62
2022/07/01 01:01:44;;;;;;;;;2.00;0.33;;;;;15.83;66.73;101062.41;5076270;27;45368;-63
2022/07/01 01:04:09;;;;;;;;;1.00;1.00;;;;;15.82;66.80;101054.47;5079418;27;45309;-62
2022/07/01 01:06:35;;;;;;;;;2.67;1.00;;;;;15.82;66.99;101067.88;5071502;28;45532;-61
2022/07/01 01:09:00;;;;;;;;;1.67;1.00;;;;;15.80;67.01;101084.06;5058786;28;46395;-60
2022/07/01 01:11:26;;;;;;;;;1.00;0.67;;;;;15.81;67.06;101075.06;5075492;28;45373;-61
2022/07/01 01:13:52;;;;;;;;;1.00;1.00;;;;;15.78;67.27;101086.00;5078125;27;45327;-61
2022/07/01 01:16:21;;;;;;;;;1.00;1.00;;;;;15.73;67.11;101081.91;5078846;27;45621;-62
2022/07/01 01:18:47;;;;;;;;;3.00;1.33;;;;;15.74;67.50;101084.50;5077569;27;46024;-62
2022/07/01 01:21:13;;;;;;;;;2.67;2.00;;;;;15.75;67.47;101085.34;5078544;27;45492;-60
2022/07/01 01:23:38;;;;;;;;;1.00;1.00;;;;;15.73;67.54;101081.91;5077213;27;45529;-61
2022/07/01 01:26:13;;;;;;;;;2.00;0.67;;;;;15.69;67.61;101069.69;5077629;27;45600;-61
2022/07/01 01:28:39;;;;;;;;;1.00;1.00;;;;;15.72;67.27;101085.56;5077340;28;46145;-63
2022/07/01 01:31:04;;;;;;;;;1.00;1.00;;;;;15.77;67.57;101089.66;5077128;27;45343;-61
2022/07/01 01:33:29;;;;;;;;;2.00;2.00;;;;;15.77;67.19;101094.16;5075943;27;45732;-62
2022/07/01 01:35:55;;;;;;;;;1.00;1.00;;;;;15.76;67.59;101092.47;5069681;27;45610;-64
2022/07/01 01:38:20;;;;;;;;;3.00;1.67;;;;;15.73;67.81;101093.50;5059006;28;45514;-61
2022/07/01 01:40:46;;;;;;;;;2.00;2.00;;;;;15.72;67.82;101097.16;5058124;28;45313;-61
2022/07/01 01:43:11;;;;;;;;;2.00;2.00;;;;;15.72;67.99;101091.78;5077155;28;45371;-60
2022/07/01 01:45:36;;;;;;;;;2.00;2.00;;;;;15.76;67.79;101098.69;5078293;27;45626;-61
2022/07/01 01:48:02;;;;;;;;;1.33;1.33;;;;;15.78;67.73;101102.09;5076826;27;45455;-62
2022/07/01 01:50:27;;;;;;;;;2.00;2.00;;;;;15.77;67.83;101099.53;5073973;27;45433;-62
2022/07/01 01:52:53;;;;;;;;;1.33;0.00;;;;;15.76;67.62;101106.72;5076806;28;45322;-63
2022/07/01 01:55:18;;;;;;;;;1.67;1.00;;;;;15.72;67.64;101102.50;5077485;27;45378;-62
2022/07/01 01:57:44;;;;;;;;;1.33;0.00;;;;;15.61;67.65;101089.84;5077581;27;45725;-61
2022/07/01 02:00:10;;;;;;;;;1.00;1.00;;;;;15.58;67.75;101095.38;5076186;27;45386;-63
2022/07/01 02:02:36;;;;;;;;;1.67;1.67;;;;;15.67;67.37;101104.66;5078407;27;45251;-62
2022/07/01 02:05:07;;;;;;;;;1.00;1.00;;;;;15.61;67.76;101105.94;5078112;27;45217;-62
2022/07/01 02:07:32;;;;;;;;;1.00;1.00;;;;;15.61;67.97;101113.13;5075934;28;48940;-61
2022/07/01 02:09:58;;;;;;;;;1.00;1.00;;;;;15.59;68.16;101117.69;5076909;27;45471;-62
2022/07/01 02:12:23;;;;;;;;;0.00;0.00;;;;;15.59;68.23;101117.69;5076652;27;45361;-61
2022/07/01 02:14:49;;;;;;;;;1.00;1.00;;;;;15.58;68.14;101115.97;5076913;27;45385;-61
2022/07/01 02:17:14;;;;;;;;;2.00;0.33;;;;;15.56;68.40;101125.97;5077824;27;45350;-60
2022/07/01 02:19:40;;;;;;;;;1.00;1.00;;;;;15.54;68.04;101126.06;5078126;27;45400;-61
2022/07/01 02:22:05;;;;;;;;;1.00;1.00;;;;;15.48;68.37;101112.22;5078307;27;45189;-62
2022/07/01 02:24:30;;;;;;;;;1.00;1.00;;;;;15.49;68.81;101121.97;5077342;27;45591;-60
2022/07/01 02:26:56;;;;;;;;;1.00;1.00;;;;;15.47;69.10;101121.22;5078279;27;46075;-61
2022/07/01 02:29:22;;;;;;;;;1.00;1.00;;;;;15.45;68.94;101126.69;5077952;27;45396;-62
2022/07/01 02:31:47;;;;;;;;;1.00;1.00;;;;;15.42;68.80;101129.56;5077763;27;45413;-60
2022/07/01 02:34:13;;;;;;;;;0.33;0.33;;;;;15.40;68.76;101131.50;5077362;27;45172;-59
2022/07/01 02:36:38;;;;;;;;;0.00;0.00;;;;;15.40;68.81;101133.34;5069068;27;45509;-59
2022/07/01 02:39:04;;;;;;;;;1.67;1.67;;;;;15.34;68.98;101130.09;5068527;28;45172;-60
2022/07/01 02:41:29;;;;;;;;;1.00;1.00;;;;;15.32;69.03;101128.47;5077802;27;45294;-60
2022/07/01 02:43:54;;;;;;;;;2.33;1.00;;;;;15.35;69.24;101138.97;5075785;27;45331;-62
2022/07/01 02:46:20;;;;;;;;;1.00;1.00;;;;;15.37;69.24;101128.19;5077209;27;45277;-58
2022/07/01 02:48:45;;;;;;;;;4.00;1.00;;;;;15.35;69.48;101130.94;5075295;27;45612;-58
2022/07/01 02:51:11;;;;;;;;;2.00;2.00;;;;;15.33;69.28;101133.72;5075339;27;45414;-63
2022/07/01 02:53:36;;;;;;;;;2.33;1.00;;;;;15.33;69.58;101138.22;5077423;27;45611;-62
2022/07/01 02:56:01;;;;;;;;;1.00;1.00;;;;;15.29;69.08;101137.59;5076139;27;47388;-63
2022/07/01 02:58:27;;;;;;;;;1.00;1.00;;;;;15.23;69.30;101129.94;5077070;27;45458;-62
2022/07/01 03:00:52;;;;;;;;;2.00;2.00;;;;;15.33;69.20;101147.13;5076078;27;45495;-63
2022/07/01 03:03:18;;;;;;;;;1.00;1.00;;;;;15.23;69.15;101129.94;5077302;27;45384;-58
2022/07/01 03:05:44;;;;;;;;;2.00;2.00;;;;;15.32;69.18;101148.09;5076208;27;46373;-60
2022/07/01 03:08:09;;;;;;;;;1.00;1.00;;;;;15.25;69.13;101152.16;5076714;27;45369;-59
2022/07/01 03:10:34;;;;;;;;;2.00;2.00;;;;;15.20;69.33;101135.50;5073772;28;45468;-60
2022/07/01 03:13:01;;;;;;;;;3.00;1.33;;;;;15.26;69.44;101137.81;5075897;27;45379;-58
2022/07/01 03:15:27;;;;;;;;;1.00;1.00;;;;;15.28;69.50;101141.22;5073781;27;45812;-61
2022/07/01 03:17:52;;;;;;;;;4.67;2.67;;;;;15.25;69.13;101148.63;5076641;27;45383;-60
2022/07/01 03:20:18;;;;;;;;;2.00;2.00;;;;;15.22;69.03;101146.97;5076400;27;45246;-59
2022/07/01 03:22:45;;;;;;;;;1.67;1.67;;;;;15.22;69.00;101146.13;5077076;27;45234;-59
2022/07/01 03:25:11;;;;;;;;;1.00;1.00;;;;;15.19;68.82;101138.28;5056477;28;46942;-60
2022/07/01 03:27:36;;;;;;;;;2.00;2.00;;;;;15.24;68.36;101152.28;5068253;28;45460;-59
2022/07/01 03:30:05;;;;;;;;;1.67;1.00;;;;;15.24;68.49;101160.31;5076536;27;45378;-59
2022/07/01 03:32:31;;;;;;;;;1.33;1.33;;;;;15.19;68.29;101157.91;5061380;27;45484;-61
2022/07/01 03:34:56;;;;;;;;;2.00;2.00;;;;;15.15;68.26;101161.75;5056072;28;45523;-61
2022/07/01 03:37:22;;;;;;;;;1.00;1.00;;;;;15.20;68.37;101158.75;5056974;28;45388;-61
2022/07/01 03:39:48;;;;;;;;;1.00;1.00;;;;;15.14;68.58;101160.03;5071448;28;45279;-61
2022/07/01 03:42:16;;;;;;;;;2.00;2.00;;;;;15.17;68.81;101172.38;5077055;27;45252;-60
2022/07/01 03:44:43;;;;;;;;;6.00;2.33;;;;;15.12;69.25;101166.47;5075229;27;46008;-61
2022/07/01 03:47:09;;;;;;;;;1.67;1.33;;;;;15.11;69.47;101162.06;5076209;27;45462;-60
2022/07/01 03:49:36;;;;;;;;;2.00;2.00;;;;;15.15;68.91;101177.84;5075411;27;45487;-59
2022/07/01 03:52:02;;;;;;;;;2.00;2.00;;;;;15.16;68.96;101182.22;5058282;27;45518;-59
2022/07/01 03:54:30;;;;;;;;;2.33;2.00;;;;;15.12;68.74;101174.50;5055797;28;45431;-60
2022/07/01 03:57:01;;;;;;;;;2.00;2.00;;;;;15.11;69.46;101187.03;5071743;28;45512;-59
2022/07/01 03:59:27;;;;;;;;;2.33;2.33;;;;;15.01;68.70;101181.41;5076035;27;45278;-60
2022/07/01 04:01:54;;;;;;;;;2.00;2.00;;;;;15.01;68.05;101191.28;5075397;27;45608;-60
2022/07/01 04:04:19;;;;;;;;;2.00;2.00;;;;;14.95;68.17;101180.94;5075337;27;46402;-58
2022/07/01 04:06:46;;;;;;;;;1.33;1.33;;;;;14.90;68.83;101172.38;5075328;27;45251;-64
2022/07/01 04:09:14;;;;;;;;;3.00;3.00;;;;;14.91;69.19;101184.78;5074679;27;45358;-61
2022/07/01 04:11:41;;;;;;;;;1.00;1.00;;;;;14.90;68.82;101193.78;5074742;27;45531;-59
2022/07/01 04:14:07;;;;;;;;;1.00;1.00;;;;;14.87;68.98;101197.53;5077336;27;45299;-59
2022/07/01 04:16:32;;;;;;;;;1.00;1.00;;;;;14.83;68.74;101193.31;5076306;27;45396;-61
2022/07/01 04:18:57;;;;;;;;;2.33;1.33;;;;;14.89;68.79;101200.09;5076721;27;45274;-63
2022/07/01 04:24:07;;;;;;;;;2.00;2.00;;;;;14.86;68.38;101197.63;5075793;28;45345;-62
2022/07/01 04:26:33;;;;;;;;;1.00;1.00;;;;;14.85;69.00;101203.94;5073650;27;45239;-60
2022/07/01 04:28:58;;;;;;;;;2.00;2.00;;;;;14.83;68.75;101198.66;5059892;28;45332;-59
2022/07/01 04:31:24;;;;;;;;;2.67;2.33;;;;;14.81;69.15;101199.72;5055715;27;45323;-62
2022/07/01 04:33:49;;;;;;;;;1.00;1.00;;;;;14.87;69.25;101205.56;5069626;28;45477;-63
2022/07/01 04:36:15;;;;;;;;;2.33;2.00;;;;;14.86;68.71;101206.53;5075246;27;45287;-64
2022/07/01 04:38:41;;;;;;;;;1.67;1.00;;;;;14.80;69.32;101208.72;5072253;28;45780;-62
2022/07/01 04:43:50;;;;;;;;;2.00;1.00;;;;;14.78;69.36;101213.31;5073931;28;45313;-61
2022/07/01 04:46:15;;;;;;;;;2.00;2.00;;;;;14.77;69.43;101208.91;5074457;27;45788;-59
2022/07/01 04:48:41;;;;;;;;;2.00;1.00;;;;;14.71;69.15;101211.03;5075685;27;45365;-61
2022/07/01 04:51:07;;;;;;;;;1.00;1.00;;;;;14.69;69.24;101212.94;5074913;27;45633;-62
2022/07/01 04:53:32;;;;;;;;;1.00;1.00;;;;;14.71;69.23;101220.84;5074789;27;45378;-59
2022/07/01 04:55:58;;;;;;;;;2.33;2.00;;;;;14.73;69.12;101213.63;5075412;27;45684;-60
2022/07/01 04:58:24;;;;;;;;;0.00;0.00;;;;;14.79;68.73;101225.75;5068077;27;45349;-59
2022/07/01 05:00:50;;;;;;;;;1.00;1.00;;;;;14.80;69.29;101225.63;5058740;28;45492;-60
2022/07/01 05:03:16;;;;;;;;;3.33;2.00;;;;;14.82;68.98;101228.22;5063922;28;45547;-59
2022/07/01 05:05:42;;;;;;;;;1.67;1.67;;;;;14.78;69.07;101234.75;5064546;27;45555;-62
2022/07/01 05:08:08;;;;;;;;;1.00;1.00;;;;;14.78;68.33;101237.41;5061460;28;45423;-59
2022/07/01 05:10:33;;;;;;;;;3.00;1.00;;;;;14.75;67.89;101233.97;5061240;27;45350;-60
2022/07/01 05:12:58;;;;;;;;;3.33;1.67;;;;;14.73;68.69;101241.25;5064213;27;46074;-60
2022/07/01 05:15:24;;;;;;;;;1.33;1.33;;;;;14.73;68.71;101238.56;5076905;27;45467;-61
2022/07/01 05:23:17;;;;;;;;;2.00;2.00;;;;;14.71;68.43;101242.28;5083761;27;45477;-59
2022/07/01 05:25:42;;;;;;;;;2.00;2.00;;;;;14.69;68.81;101245.06;5064375;28;45452;-59
2022/07/01 05:28:08;;;;;;;;;2.00;2.00;;;;;14.73;68.58;101243.94;5088861;27;45298;-62
2022/07/01 05:30:33;;;;;;;;;1.00;1.00;;;;;14.70;68.41;101229.84;5084654;27;45649;-61
2022/07/01 05:32:59;;;;;;;;;2.00;2.00;;;;;14.71;67.95;101231.56;5086239;27;47203;-61
2022/07/01 05:35:24;;;;;;;;;1.00;1.00;;;;;14.75;67.15;101231.31;5098109;27;45447;-61
2022/07/01 05:37:49;;;;;;;;;1.00;1.00;;;;;14.67;67.14;101230.91;5091691;27;45307;-60
2022/07/01 05:40:15;;;;;;;;;1.33;0.67;;;;;14.70;67.51;101241.41;5071566;27;45394;-62
2022/07/01 05:42:40;;;;;;;;;2.00;2.00;;;;;14.71;67.30;101243.16;5074846;28;46045;-60
2022/07/01 05:45:06;;;;;;;;;1.00;1.00;;;;;14.73;67.69;101243.94;5077267;27;45235;-61
2022/07/01 05:47:31;;;;;;;;;2.00;1.00;;;;;14.74;66.60;101250.16;5071744;27;45472;-59
2022/07/01 05:49:57;;;;;;;;;1.00;1.00;;;;;14.72;67.13;101244.88;5078359;27;45420;-66
2022/07/01 05:52:22;;;;;;;;;2.00;2.00;;;;;14.71;66.84;101237.81;5070126;27;47019;-62
2022/07/01 05:54:48;;;;;;;;;1.67;1.67;;;;;14.77;66.96;101239.22;5056641;28;45284;-66
2022/07/01 05:57:13;;;;;;;;;4.00;2.00;;;;;14.84;66.63;101242.38;5061646;28;45252;-63
2022/07/01 05:59:39;;;;;;;;;4.33;3.00;;;;;14.82;66.98;101244.28;5077306;27;45541;-64
2022/07/01 06:02:04;;;;;;;;;1.00;1.00;;;;;14.84;66.85;101247.72;5075805;27;45493;-65
2022/07/01 06:04:30;;;;;;;;;4.33;4.33;;;;;14.87;67.11;101247.56;5078148;27;45455;-60
2022/07/01 06:06:55;;;;;;;;;1.00;1.00;;;;;14.96;65.93;101254.97;5070206;27;45267;-60
2022/07/01 06:09:20;;;;;;;;;3.00;2.00;;;;;14.99;65.83;101260.16;5064775;28;45489;-60
2022/07/01 06:11:46;;;;;;;;;2.00;2.00;;;;;15.00;65.54;101252.03;5064629;28;45305;-64
2022/07/01 06:14:11;;;;;;;;;0.33;0.33;;;;;15.04;64.55;101250.00;5077391;27;45405;-63
2022/07/01 06:16:37;;;;;;;;;1.00;1.00;;;;;15.07;65.06;101255.16;5071929;27;45425;-60
2022/07/01 06:19:04;;;;;;;;;1.00;1.00;;;;;15.10;65.00;101263.00;5077948;27;45441;-60
2022/07/01 06:21:30;;;;;;;;;2.33;1.00;;;;;15.13;64.54;101268.19;5073929;27;47651;-62
2022/07/01 06:23:55;;;;;;;;;1.33;1.00;;;;;15.15;63.98;101268.94;5066407;28;45751;-67
2022/07/01 06:26:21;;;;;;;;;1.00;1.00;;;;;15.12;64.69;101247.69;5068120;28;45543;-64
2022/07/01 06:28:46;;;;;;;;;0.00;0.00;;;;;15.17;64.03;101260.78;5087268;27;45530;-60
2022/07/01 06:31:11;;;;;;;;;0.67;0.67;;;;;15.18;64.22;101268.72;5072028;28;46307;-66
2022/07/01 06:33:37;;;;;;;;;1.00;1.00;;;;;15.17;63.80;101267.00;5067990;27;45484;-63
2022/07/01 06:36:02;;;;;;;;;2.00;2.00;;;;;15.25;63.80;101269.22;5062591;28;45476;-64
2022/07/01 06:38:29;;;;;;;;;3.67;2.00;;;;;15.29;63.46;101273.41;5076947;27;45645;-66
2022/07/01 06:43:38;;;;;;;;;3.00;1.00;;;;;15.28;63.30;101264.50;5075118;28;45548;-63
2022/07/01 06:46:05;;;;;;;;;3.00;1.00;;;;;15.35;63.02;101276.53;5074947;27;45480;-62
2022/07/01 06:48:30;;;;;;;;;1.00;1.00;;;;;15.32;63.48;101270.50;5072271;28;45628;-66
2022/07/01 06:50:56;;;;;;;;;1.00;1.00;;;;;15.39;62.98;101282.56;5070417;27;45494;-64
2022/07/01 06:53:21;;;;;;;;;3.00;1.00;;;;;15.39;63.29;101276.34;5073594;27;45429;-65
2022/07/01 06:55:47;;;;;;;;;1.00;0.00;;;;;15.38;63.20;101280.84;5076998;27;45237;-65
2022/07/01 06:58:12;;;;;;;;;1.00;1.00;;;;;15.42;62.90;101287.72;5077518;27;45496;-62
2022/07/01 07:00:37;;;;;;;;;1.00;1.00;;;;;15.42;62.29;101286.84;5070735;27;45487;-66
2022/07/01 07:03:03;;;;;;;;;0.00;0.00;;;;;15.48;62.38;101278.41;5056808;28;45302;-65
2022/07/01 07:05:30;;;;;;;;;0.67;0.67;;;;;15.54;61.29;101292.28;5068790;27;45399;-62
2022/07/01 07:07:56;;;;;;;;;1.67;1.67;;;;;15.55;61.33;101285.09;5074238;27;45471;-64
2022/07/01 07:10:22;;;;;;;;;2.00;1.00;;;;;15.61;61.20;101288.25;5071664;27;45473;-64
2022/07/01 07:12:48;;;;;;;;;0.00;0.00;;;;;15.62;60.67;101284.63;5076701;28;45435;-62
2022/07/01 07:15:13;;;;;;;;;3.00;2.00;;;;;15.63;61.37;101288.19;5076999;28;45358;-61
2022/07/01 07:17:39;;;;;;;;;1.00;1.00;;;;;15.69;61.71;101273.50;5075736;27;45477;-62
2022/07/01 07:20:05;;;;;;;;;2.33;0.33;;;;;15.72;61.67;101292.91;5064900;28;45923;-64
2022/07/01 07:22:30;;;;;;;;;2.00;1.00;;;;;15.76;62.07;101283.72;5059491;27;45906;-59
2022/07/01 07:24:56;;;;;;;;;1.00;1.00;;;;;15.81;60.79;101281.56;5077849;27;45470;-64
2022/07/01 07:27:21;;;;;;;;;2.00;2.00;;;;;15.81;61.88;101278.91;5087348;27;45490;-65
2022/07/01 07:29:47;;;;;;;;;3.00;2.00;;;;;15.89;60.31;101276.56;5076439;27;45991;-62
2022/07/01 07:32:12;;;;;;;;;3.33;1.00;;;;;15.93;60.38;101272.72;5059781;27;45252;-63
2022/07/01 07:34:38;;;;;;;;;2.00;1.00;;;;;15.98;59.31;101268.84;5075548;27;44807;-65
2022/07/01 07:37:03;;;;;;;;;0.00;0.00;;;;;15.97;59.02;101273.34;5070626;28;45834;-59
2022/07/01 07:39:32;;;;;;;;;2.00;1.00;;;;;16.07;59.32;101278.97;5069908;27;46096;-63
2022/07/01 07:41:59;;;;;;;;;0.00;0.00;;;;;16.06;58.99;101267.38;5069610;28;44783;-61
2022/07/01 07:44:25;;;;;;;;;1.00;1.00;;;;;16.09;58.77;101264.47;5073167;27;45537;-59
2022/07/01 07:46:50;;;;;;;;;0.00;0.00;;;;;16.17;57.75;101269.31;5077702;27;45547;-61
2022/07/01 07:49:16;;;;;;;;;0.00;0.00;;;;;16.22;58.20;101269.84;5077350;27;46085;-63
2022/07/01 07:51:42;;;;;;;;;1.00;1.00;;;;;16.23;57.44;101261.69;5064407;27;45214;-63
2022/07/01 07:54:07;;;;;;;;;1.00;1.00;;;;;16.36;58.30;101272.44;5056524;28;45323;-62
2022/07/01 07:56:33;;;;;;;;;1.00;1.00;;;;;16.38;56.96;101270.50;5057477;28;45204;-63
2022/07/01 07:58:58;;;;;;;;;1.00;1.00;;;;;16.47;57.13;101267.19;5072038;27;47137;-66
2022/07/01 08:01:27;;;;;;;;;1.00;1.00;;;;;16.51;56.82;101274.06;5064494;27;45258;-66
2022/07/01 08:03:52;;;;;;;;;1.00;1.00;;;;;16.57;55.30;101269.25;5074798;28;45423;-67
2022/07/01 08:06:18;;;;;;;;;0.00;0.00;;;;;16.60;56.26;101275.25;5076366;27;45424;-65
2022/07/01 08:08:43;;;;;;;;;2.00;1.00;;;;;16.58;56.24;101258.38;5066092;28;45369;-65
2022/07/01 08:11:09;;;;;;;;;0.67;0.67;;;;;16.52;55.91;101264.16;5069297;28;45390;-61
2022/07/01 08:13:34;;;;;;;;;0.67;0.33;;;;;16.65;56.08;101272.22;5075330;27;45426;-67
2022/07/01 08:16:00;;;;;;;;;1.00;1.00;;;;;16.73;56.44;101277.94;5072509;28;45539;-60
2022/07/01 08:18:26;;;;;;;;;1.00;1.00;;;;;16.78;55.28;101276.66;5057036;28;46476;-61
2022/07/01 08:20:52;;;;;;;;;0.00;0.00;;;;;16.89;55.88;101283.94;5067519;28;45413;-60
2022/07/01 08:23:19;;;;;;;;;0.00;0.00;;;;;16.94;55.31;101276.44;5073347;28;45528;-62
2022/07/01 08:25:45;;;;;;;;;2.00;0.00;;;;;16.96;51.80;101258.38;5069979;27;45564;-60
2022/07/01 08:28:10;;;;;;;;;0.00;0.00;;;;;17.21;51.99;101283.47;5095856;27;47533;-62
2022/07/01 08:30:36;;;;;;;;;0.00;0.00;;;;;17.62;53.26;101283.97;5072890;27;45493;-62
2022/07/01 08:33:02;;;;;;;;;0.00;0.00;;;;;18.04;49.37;101260.19;5075949;27;45350;-62
2022/07/01 08:35:27;;;;;;;;;1.33;0.00;;;;;18.60;48.02;101287.22;5073907;28;45549;-63
2022/07/01 08:37:53;;;;;;;;;0.00;0.00;;;;;19.26;49.41;101285.53;5074302;27;45999;-64
2022/07/01 08:40:18;;;;;;;;;0.00;0.00;;;;;19.97;48.08;101281.44;5079208;27;45563;-64
2022/07/01 08:42:44;;;;;;;;;3.00;1.00;;;;;20.57;46.96;101288.00;5078578;28;45344;-60
2022/07/01 08:45:09;;;;;;;;;0.00;0.00;;;;;20.94;41.50;101286.59;5067130;28;45589;-58
2022/07/01 08:47:49;;;;;;;;;0.00;0.00;;;;;21.31;43.21;101267.97;5081081;28;45963;-60
2022/07/01 08:50:14;;;;;;;;;0.00;0.00;;;;;21.82;43.21;101283.13;5066950;27;45389;-60
2022/07/01 08:52:40;;;;;;;;;1.00;1.00;;;;;22.28;45.03;101282.44;5058605;28;45703;-60
2022/07/01 08:55:05;;;;;;;;;0.00;0.00;;;;;22.73;43.28;101271.75;5071347;28;45583;-59
2022/07/01 08:57:31;;;;;;;;;1.00;1.00;;;;;23.18;41.96;101295.47;5094773;27;45941;-59
2022/07/01 09:00:04;;;;;;;;;1.00;1.00;;;;;23.52;41.79;101292.97;5098695;27;45620;-58
2022/07/01 09:02:51;;;;;;;;;1.00;1.00;;;;;23.85;41.55;101294.19;5077606;28;45284;-59
2022/07/01 09:05:17;;;;;;;;;1.00;0.00;;;;;24.04;39.93;101283.16;5079110;28;45570;-60
2022/07/01 09:07:43;;;;;;;;;0.00;0.00;;;;;24.24;38.75;101299.31;5079581;27;46299;-60
2022/07/01 09:10:17;;;;;;;;;0.25;0.25;;;;;24.50;39.58;101304.81;5078759;27;45483;-60
2022/07/01 09:12:44;;;;;;;;;2.00;0.00;;;;;24.74;37.97;101285.94;5067103;27;45429;-60
2022/07/01 09:15:26;;;;;;;;;0.00;0.00;;;;;24.94;37.99;101289.25;5060567;28;45543;-59
2022/07/01 09:17:53;;;;;;;;;1.00;0.60;;;;;25.24;38.10;101286.00;5078147;28;46137;-60
2022/07/01 09:20:33;;;;;;;;;1.60;0.60;;;;;25.56;37.34;101292.59;5078574;27;45402;-61
2022/07/01 09:23:07;;;;;;;;;1.00;0.00;;;;;25.75;36.46;101286.00;5078765;27;45404;-61
2022/07/01 09:25:39;;;;;;;;;0.00;0.00;;;;;25.72;33.48;101289.06;5079253;27;45344;-60
2022/07/01 09:28:15;;;;;;;;;0.00;0.00;;;;;25.88;35.64;101289.09;5072984;27;45487;-61
2022/07/01 09:30:44;;;;;;;;;0.00;0.00;;;;;26.03;35.41;101276.47;5058204;28;45338;-62
2022/07/01 09:33:12;;;;;;;;;0.40;0.40;;;;;26.31;33.50;101296.09;5058663;28;45227;-64
2022/07/01 09:35:39;;;;;;;;;2.00;0.20;;;;;26.29;34.61;101300.84;5067575;28;45460;-62
2022/07/01 09:38:07;;;;;;;;;2.00;0.00;;;;;26.28;33.50;101299.16;5069988;27;45531;-62
2022/07/01 09:40:52;;;;;;;;;0.00;0.00;;;;;26.30;35.40;101302.56;5077354;27;45322;-64
2022/07/01 09:43:19;;;;;;;;;0.00;0.00;;;;;25.95;35.09;101297.47;5078257;27;45278;-61
2022/07/01 09:46:03;;;;;;;;;0.00;0.00;;;;;25.71;35.88;101303.72;5049602;28;45627;-58
2022/07/01 09:48:32;;;;;;;;;0.00;0.00;;;;;25.40;35.03;101319.78;5058025;28;47148;-63
2022/07/01 09:50:58;;;;;;;;;2.40;0.00;;;;;25.12;35.96;101292.75;5076888;27;45444;-65
2022/07/01 09:53:25;;;;;;;;;0.00;0.00;;;;;25.08;36.44;101302.28;5078472;27;45408;-60
2022/07/01 09:55:51;;;;;;;;;0.00;0.00;;;;;24.86;36.13;101287.31;5078706;27;45590;-59
2022/07/01 09:58:16;;;;;;;;;1.00;1.00;;;;;24.65;36.18;101306.78;5078349;27;45560;-62
2022/07/01 10:00:48;;;;;;;;;0.00;0.00;;;;;24.30;38.18;101310.41;5078394;27;45337;-63
2022/07/01 10:03:14;;;;;;;;;0.80;0.80;;;;;23.95;37.65;101308.53;5063222;28;45410;-63
2022/07/01 10:05:47;;;;;;;;;0.00;0.00;;;;;24.30;37.70;101304.13;5059042;28;45556;-57
2022/07/01 10:08:22;;;;;;;;;0.00;0.00;;;;;24.83;37.79;101305.84;5070584;28;46181;-58
2022/07/01 10:11:24;;;;;;;;;1.60;0.80;;;;;25.09;35.90;101303.97;5077705;28;45985;-57
2022/07/01 10:13:51;;;;;;;;;0.00;0.00;;;;;25.17;35.68;101308.63;5079632;27;45276;-62
2022/07/01 10:16:17;;;;;;;;;0.00;0.00;;;;;24.99;36.53;101289.59;5078546;27;45276;-62
2022/07/01 10:18:43;;;;;;;;;2.00;1.00;;;;;24.95;35.50;101304.56;5076034;27;45407;-65
2022/07/01 10:21:11;;;;;;;;;0.00;0.00;;;;;24.90;34.89;101312.38;5057820;28;45504;-61
2022/07/01 10:23:41;;;;;;;;;0.00;0.00;;;;;24.57;35.09;101317.59;5058285;28;45363;-67
2022/07/01 10:26:08;;;;;;;;;0.00;0.00;;;;;24.01;37.35;101310.66;5058331;28;45345;-62
2022/07/01 10:28:46;;;;;;;;;0.00;0.00;;;;;23.64;37.45;101323.50;5065574;28;46366;-57
2022/07/01 10:31:17;;;;;;;;;1.25;0.75;;;;;23.33;37.93;101317.53;5075405;27;45408;-59
2022/07/01 10:33:53;;;;;;;;;1.50;0.00;;;;;23.00;38.84;101302.66;5064300;27;45545;-66
2022/07/01 10:36:21;;;;;;;;;0.00;0.00;;;;;22.77;36.90;101324.69;5061373;28;45498;-65
2022/07/01 10:39:06;;;;;;;;;0.00;0.00;;;;;22.48;40.35;101313.91;5077146;27;45894;-67
2022/07/01 10:41:34;;;;;;;;;0.00;0.00;;;;;22.38;38.94;101318.50;5077399;27;45460;-58
2022/07/01 10:44:04;;;;;;;;;0.00;0.00;;;;;22.34;38.77;101307.09;5075284;28;45196;-57
2022/07/01 10:46:45;;;;;;;;;0.00;0.00;;;;;22.34;38.91;101312.50;5077012;27;45405;-58
2022/07/01 10:49:13;;;;;;;;;2.00;0.00;;;;;22.31;38.40;101317.38;5075877;27;45354;-63
2022/07/01 10:51:58;;;;;;;;;0.75;0.75;;;;;22.23;39.11;101306.41;5076793;28;45441;-63
2022/07/01 10:54:39;;;;;;;;;1.00;1.00;;;;;22.16;38.77;101310.69;5077183;27;45313;-61
2022/07/01 10:57:19;;;;;;;;;0.00;0.00;;;;;22.12;39.33;101312.81;5076828;27;45472;-60
2022/07/01 11:00:13;;;;;;;;;0.00;0.00;;;;;21.91;38.60;101312.94;5075641;27;45474;-59
2022/07/01 11:02:39;;;;;;;;;0.75;0.75;;;;;21.82;39.70;101299.38;5061721;27;45415;-59
2022/07/01 11:05:15;;;;;;;;;0.00;0.00;;;;;21.76;39.32;101309.78;5077078;27;45393;-59
2022/07/01 11:07:46;;;;;;;;;0.00;0.00;;;;;21.75;39.50;101316.22;5077608;27;45305;-60
2022/07/01 11:10:15;;;;;;;;;0.50;0.50;;;;;21.69;39.74;101315.91;5076859;27;46414;-59
2022/07/01 11:12:43;;;;;;;;;0.25;0.00;;;;;21.61;39.76;101305.75;5075694;28;45446;-59
2022/07/01 11:15:10;;;;;;;;;0.00;0.00;;;;;21.73;39.45;101320.03;5077495;27;45298;-60
2022/07/01 11:17:42;;;;;;;;;0.00;0.00;;;;;21.76;39.18;101312.50;5077657;27;45378;-59
2022/07/01 11:20:08;;;;;;;;;0.00;0.00;;;;;21.77;38.02;101308.78;5077190;27;45316;-59
2022/07/01 11:22:35;;;;;;;;;0.00;0.00;;;;;21.85;37.47;101309.94;5058808;28;45319;-61
2022/07/01 11:25:03;;;;;;;;;0.00;0.00;;;;;21.56;38.89;101266.59;5077059;27;45342;-60
2022/07/01 11:27:30;;;;;;;;;0.25;0.00;;;;;21.75;38.78;101305.38;5076966;27;45308;-59
2022/07/01 11:29:58;;;;;;;;;0.25;0.25;;;;;21.68;39.09;101285.28;5076341;28;46077;-59
2022/07/01 11:32:44;;;;;;;;;0.25;0.00;;;;;21.74;39.59;101300.94;5076234;27;45309;-61
2022/07/01 11:41:07;;;;;;;;;2.00;1.00;;;;;21.87;38.59;101302.50;5076280;28;45897;-63
2022/07/01 11:43:39;;;;;;;;;1.00;1.00;;;;;21.76;38.63;101298.97;5071495;27;45250;-60